Crooks, South Dakota
Current Conditions -  °F | °C
As of 12:56 AM on Thursday 18 Dec 2014 (Local Time) from KFSD Reporting Station
Overcast Overcast  
Wind Chill: 15°   Ceiling: 7000
Heat Index: 15°   Visibility: 10mi
Dew Point: 11°   Wind: 3mph
Humidity: 84%   Direction: 50°NE
Pressure: 30.26"   Gusts: NA
Location:  43.66°N, 96.81°W
Report Text: KFSD 180656Z AUTO 05003KT 10SM OVC070 M09/M12 A3026 RMK AO2 SLP275 T10941117
Loading
Personal Weather Stations






























Interactive Weather Map New forecast layout! Learn more

10-Day Weather Forecast

Advertisements
Track Severe Weather on mobile